createdAt,value
2018-07-23T00:01:18.495Z,64.50
2018-07-23T00:03:47.487Z,64.80
2018-07-23T00:06:15.745Z,64.80
2018-07-23T00:08:44.001Z,64.50
2018-07-23T00:11:12.235Z,64.50
2018-07-23T00:13:40.493Z,64.40
2018-07-23T00:16:09.469Z,64.50
2018-07-23T00:18:38.518Z,65.10
2018-07-23T00:21:06.713Z,64.40
2018-07-23T00:23:34.989Z,64.60
2018-07-23T00:26:03.230Z,64.50
2018-07-23T00:28:31.447Z,65.10
2018-07-23T00:30:59.699Z,65.00
2018-07-23T00:33:27.916Z,66.50
2018-07-23T00:35:56.167Z,64.90
2018-07-23T00:38:24.394Z,65.70
2018-07-23T00:40:53.382Z,64.50
2018-07-23T00:43:22.374Z,65.00
2018-07-23T00:45:51.336Z,64.70
2018-07-23T00:48:19.566Z,64.80
2018-07-23T00:50:47.818Z,64.80
2018-07-23T00:53:16.803Z,64.90
2018-07-23T00:55:45.775Z,65.10
2018-07-23T00:58:13.998Z,65.10
2018-07-23T01:00:42.249Z,64.80
2018-07-23T01:03:11.243Z,65.40
2018-07-23T01:05:40.251Z,64.90
2018-07-23T01:08:09.285Z,64.70
2018-07-23T01:10:37.496Z,64.80
2018-07-23T01:13:05.767Z,64.90
2018-07-23T01:15:33.979Z,64.80
2018-07-23T01:18:03.008Z,65.00
2018-07-23T01:20:31.251Z,65.10
2018-07-23T01:23:00.241Z,65.10
2018-07-23T01:25:28.466Z,65.10
2018-07-23T01:27:56.737Z,65.00
2018-07-23T01:30:24.939Z,65.10
2018-07-23T01:32:53.221Z,65.20
2018-07-23T01:35:21.475Z,65.20
2018-07-23T01:37:49.709Z,65.10
2018-07-23T01:40:17.958Z,65.30
2018-07-23T01:42:46.177Z,65.30
2018-07-23T01:45:14.439Z,65.40
2018-07-23T01:47:42.658Z,65.90
2018-07-23T01:50:10.871Z,65.40
2018-07-23T01:52:39.854Z,68.50
2018-07-23T01:55:08.121Z,68.50
2018-07-23T01:57:36.363Z,65.90
2018-07-23T02:00:04.630Z,66.20
2018-07-23T02:02:32.886Z,70.30
2018-07-23T02:05:01.871Z,66.50
2018-07-23T02:07:30.836Z,68.50
2018-07-23T02:09:59.117Z,68.50
2018-07-23T02:12:27.316Z,66.70
2018-07-23T02:14:56.352Z,66.00
2018-07-23T02:17:24.587Z,66.00
2018-07-23T02:19:53.606Z,66.00
2018-07-23T02:22:21.818Z,66.00
2018-07-23T02:24:50.082Z,65.70
2018-07-23T02:27:18.288Z,66.50
2018-07-23T02:29:46.542Z,66.40
2018-07-23T02:32:14.752Z,66.10
2018-07-23T02:34:42.978Z,66.70
2018-07-23T02:37:11.185Z,66.40
2018-07-23T02:39:39.463Z,66.00
2018-07-23T02:42:07.680Z,65.90
2018-07-23T02:44:35.984Z,65.90
2018-07-23T02:47:04.175Z,65.90
2018-07-23T02:49:32.445Z,65.70
2018-07-23T02:52:00.642Z,65.70
2018-07-23T02:54:28.880Z,66.10
2018-07-23T02:56:57.126Z,65.90
2018-07-23T02:59:26.121Z,65.90
2018-07-23T03:01:55.085Z,66.20
2018-07-23T03:04:23.325Z,66.40
2018-07-23T03:06:51.569Z,66.10
2018-07-23T03:09:20.559Z,65.90
2018-07-23T03:11:49.578Z,66.40
2018-07-23T03:14:17.843Z,66.40
2018-07-23T03:16:46.102Z,66.10
2018-07-23T03:19:14.362Z,66.10
2018-07-23T03:21:42.626Z,66.00
2018-07-23T03:24:10.824Z,66.30
2018-07-23T03:26:39.802Z,66.20
2018-07-23T03:29:08.016Z,66.20
2018-07-23T03:31:36.228Z,66.30
2018-07-23T03:34:04.496Z,66.10
2018-07-23T03:36:32.758Z,67.90
2018-07-23T03:39:01.018Z,67.10
2018-07-23T03:41:29.998Z,69.50
2018-07-23T03:43:59.028Z,69.10
2018-07-23T03:46:27.229Z,68.40
2018-07-23T03:48:55.506Z,67.90
2018-07-23T03:51:23.748Z,67.20
2018-07-23T03:53:51.957Z,67.20
2018-07-23T03:56:20.212Z,66.80
2018-07-23T03:58:48.428Z,67.00
2018-07-23T04:01:16.647Z,66.70
2018-07-23T04:03:44.908Z,67.00
2018-07-23T04:06:13.936Z,66.80
2018-07-23T04:08:42.143Z,66.90
2018-07-23T04:11:10.362Z,67.10
2018-07-23T04:13:39.390Z,68.60
2018-07-23T04:16:07.638Z,68.60
2018-07-23T04:18:36.644Z,67.40
2018-07-23T04:21:04.834Z,67.40
2018-07-23T04:23:33.102Z,67.50
2018-07-23T04:26:01.356Z,67.30
2018-07-23T04:28:29.598Z,67.60
2018-07-23T04:30:57.808Z,67.50
2018-07-23T04:33:26.833Z,67.70
2018-07-23T04:35:55.074Z,67.70
2018-07-23T04:38:24.103Z,69.50
2018-07-23T04:40:52.343Z,70.20
2018-07-23T04:43:21.333Z,67.80
2018-07-23T04:45:50.308Z,67.50
2018-07-23T04:48:18.570Z,67.40
2018-07-23T04:50:46.777Z,67.80
2018-07-23T04:53:16.064Z,68.10
2018-07-23T04:55:44.306Z,68.10
2018-07-23T04:58:12.566Z,68.10
2018-07-23T05:00:40.784Z,68.40
2018-07-23T05:03:09.041Z,68.10
2018-07-23T05:05:39.983Z,68.30
2018-07-23T05:08:09.149Z,68.80
2018-07-23T05:10:38.777Z,68.50
2018-07-23T05:13:07.639Z,68.50
2018-07-23T05:15:36.641Z,68.60
2018-07-23T05:18:04.907Z,68.60
2018-07-23T05:20:33.881Z,68.30
2018-07-23T05:23:02.103Z,68.40
2018-07-23T05:25:30.438Z,68.30
2018-07-23T05:27:59.265Z,70.30
2018-07-23T05:30:27.507Z,69.10
2018-07-23T05:32:56.527Z,68.60
2018-07-23T05:35:25.519Z,69.20
2018-07-23T05:37:53.783Z,69.20
2018-07-23T05:40:21.990Z,69.80
2018-07-23T05:42:50.243Z,68.90
2018-07-23T05:45:19.220Z,69.20
2018-07-23T05:47:48.191Z,68.90
2018-07-23T05:50:16.874Z,68.90
2018-07-23T05:52:45.592Z,69.50
2018-07-23T05:55:14.590Z,68.70
2018-07-23T05:57:43.692Z,69.10
2018-07-23T06:00:11.886Z,69.10
2018-07-23T06:02:42.029Z,69.00
2018-07-23T06:05:10.267Z,69.50
2018-07-23T06:07:39.318Z,69.20
2018-07-23T06:10:07.734Z,71.10
2018-07-23T06:12:36.806Z,69.00
2018-07-23T06:15:07.782Z,68.90
2018-07-23T06:17:36.794Z,68.90
2018-07-23T06:20:05.044Z,69.00
2018-07-23T06:22:34.022Z,68.90
2018-07-23T06:25:02.298Z,68.90
2018-07-23T06:27:30.540Z,69.00
2018-07-23T06:29:58.766Z,69.80
2018-07-23T06:32:27.774Z,69.00
2018-07-23T06:34:57.074Z,69.00
2018-07-23T06:37:25.330Z,69.00
2018-07-23T06:39:53.592Z,69.00
2018-07-23T06:42:21.776Z,68.70
2018-07-23T06:44:50.764Z,69.40
2018-07-23T06:47:19.019Z,69.30
2018-07-23T06:49:47.275Z,70.40
2018-07-23T06:52:15.515Z,69.40
2018-07-23T06:54:43.743Z,69.00
2018-07-23T06:57:11.965Z,68.80
2018-07-23T06:59:40.209Z,69.00
2018-07-23T07:02:08.445Z,69.30
2018-07-23T07:04:36.680Z,68.80
2018-07-23T07:07:04.888Z,68.80
2018-07-23T07:09:34.995Z,69.30
2018-07-23T07:12:03.987Z,68.70
2018-07-23T07:14:32.223Z,68.70
2018-07-23T07:17:00.425Z,68.60
2018-07-23T07:19:28.687Z,69.20
2018-07-23T07:21:56.897Z,69.50
2018-07-23T07:24:25.162Z,68.40
2018-07-23T07:26:53.399Z,68.70
2018-07-23T07:29:22.481Z,68.30
2018-07-23T07:31:50.704Z,71.70
2018-07-23T07:34:18.944Z,68.80
2018-07-23T07:36:47.157Z,68.40
2018-07-23T07:39:16.149Z,68.30
2018-07-23T07:41:45.135Z,68.30
2018-07-23T07:44:13.417Z,68.30
2018-07-23T07:46:42.482Z,68.20
2018-07-23T07:49:10.695Z,69.20
2018-07-23T07:51:39.720Z,68.30
2018-07-23T07:54:10.313Z,68.30
2018-07-23T07:56:38.519Z,68.40
2018-07-23T07:59:06.780Z,68.10
2018-07-23T08:01:35.011Z,68.20
2018-07-23T08:04:03.227Z,68.00
2018-07-23T08:06:32.987Z,68.70
2018-07-23T08:09:01.221Z,68.30
2018-07-23T08:11:30.235Z,68.20
2018-07-23T08:13:58.448Z,68.20
2018-07-23T08:16:27.560Z,68.00
2018-07-23T08:18:55.827Z,67.90
2018-07-23T08:21:24.047Z,68.10
2018-07-23T08:23:52.347Z,67.90
2018-07-23T08:26:20.599Z,67.60
2018-07-23T08:28:49.581Z,67.80
2018-07-23T08:31:18.567Z,67.90
2018-07-23T08:33:47.161Z,67.80
2018-07-23T08:36:15.382Z,67.60
2018-07-23T08:38:43.611Z,67.50
2018-07-23T08:41:12.633Z,66.60
2018-07-23T08:43:40.889Z,66.60
2018-07-23T08:46:09.665Z,67.50
2018-07-23T08:48:38.586Z,67.00
2018-07-23T08:51:07.595Z,66.10
2018-07-23T08:53:35.854Z,66.00
2018-07-23T08:56:04.878Z,63.70
2018-07-23T08:58:33.122Z,63.40
2018-07-23T09:01:02.142Z,66.20
2018-07-23T09:03:30.403Z,66.20
2018-07-23T09:05:58.661Z,61.90
2018-07-23T09:08:28.217Z,65.80
2018-07-23T09:10:56.377Z,65.90
2018-07-23T09:13:24.643Z,65.90
2018-07-23T09:15:53.635Z,61.80
2018-07-23T09:18:23.533Z,65.20
2018-07-23T09:20:52.585Z,64.40
2018-07-23T09:23:20.822Z,64.30
2018-07-23T09:25:49.041Z,64.80
2018-07-23T09:28:17.240Z,65.40
2018-07-23T09:30:46.321Z,63.90
2018-07-23T09:33:14.478Z,63.90
2018-07-23T09:35:42.695Z,64.50
2018-07-23T09:38:11.678Z,64.80
2018-07-23T09:40:39.934Z,64.70
2018-07-23T09:43:08.182Z,64.70
2018-07-23T09:45:40.253Z,63.30
2018-07-23T09:48:08.404Z,63.90
2018-07-23T09:50:36.688Z,63.70
2018-07-23T09:53:05.635Z,59.70
2018-07-23T09:55:33.874Z,59.30
2018-07-23T09:58:02.086Z,63.30
2018-07-23T10:00:30.984Z,58.60
2018-07-23T10:02:59.312Z,61.90
2018-07-23T10:05:27.515Z,58.60
2018-07-23T10:07:55.719Z,62.00
2018-07-23T10:10:23.964Z,62.00
2018-07-23T10:12:52.170Z,61.70
2018-07-23T10:15:21.699Z,62.20
2018-07-23T10:17:50.716Z,61.90
2018-07-23T10:20:18.983Z,61.90
2018-07-23T10:22:47.173Z,62.20
2018-07-23T10:25:15.429Z,62.30
2018-07-23T10:27:43.678Z,58.70
2018-07-23T10:30:11.905Z,60.40
2018-07-23T10:32:40.140Z,56.30
2018-07-23T10:35:08.411Z,61.60
2018-07-23T10:37:36.993Z,58.70
2018-07-23T10:40:05.258Z,61.20
2018-07-23T10:42:33.463Z,53.90
2018-07-23T10:45:02.465Z,57.70
2018-07-23T10:47:30.728Z,57.80
2018-07-23T10:49:58.929Z,58.70
2018-07-23T10:52:27.179Z,57.00
2018-07-23T10:54:56.203Z,60.00
2018-07-23T10:57:24.454Z,59.90
2018-07-23T10:59:52.661Z,59.50
2018-07-23T11:02:21.212Z,58.30
2018-07-23T11:04:50.203Z,58.80
2018-07-23T11:07:19.195Z,59.60
2018-07-23T11:09:47.438Z,59.70
2018-07-23T11:12:15.699Z,52.50
2018-07-23T11:14:43.908Z,55.60
2018-07-23T11:17:12.120Z,54.10
2018-07-23T11:19:40.397Z,57.10
2018-07-23T11:22:09.410Z,55.20
2018-07-23T11:24:37.688Z,55.40
2018-07-23T11:27:05.897Z,57.40
2018-07-23T11:29:34.158Z,57.40
2018-07-23T11:32:02.393Z,57.10
2018-07-23T11:34:30.622Z,57.50
2018-07-23T11:36:58.869Z,57.00
2018-07-23T11:39:27.154Z,56.00
2018-07-23T11:41:55.387Z,53.40
2018-07-23T11:44:23.659Z,55.90
2018-07-23T11:46:51.923Z,58.40
2018-07-23T11:49:20.179Z,56.80
2018-07-23T11:51:48.423Z,56.80
2018-07-23T11:54:16.689Z,54.80
2018-07-23T11:56:44.944Z,55.80
2018-07-23T11:59:13.198Z,55.00
2018-07-23T12:01:41.439Z,56.30
2018-07-23T12:04:10.403Z,55.40
2018-07-23T12:06:37.933Z,55.60
2018-07-23T12:09:06.138Z,52.50
2018-07-23T12:11:35.158Z,52.90
2018-07-23T12:14:03.439Z,53.00
2018-07-23T12:16:31.686Z,54.00
2018-07-23T12:19:00.686Z,53.60
2018-07-23T12:21:28.951Z,53.60
2018-07-23T12:23:57.183Z,53.80
2018-07-23T12:26:25.391Z,49.30
2018-07-23T12:28:54.393Z,51.10
2018-07-23T12:31:23.364Z,53.20
2018-07-23T12:33:51.595Z,53.10
2018-07-23T12:36:19.867Z,53.40
2018-07-23T12:38:48.075Z,46.50
2018-07-23T12:41:16.311Z,50.60
2018-07-23T12:43:44.582Z,50.70
2018-07-23T12:46:13.608Z,47.20
2018-07-23T12:48:41.859Z,47.00
2018-07-23T12:51:10.073Z,52.30
2018-07-23T12:53:38.348Z,51.10
2018-07-23T12:56:07.280Z,51.30
2018-07-23T12:58:37.247Z,47.50
2018-07-23T13:01:05.472Z,47.90
2018-07-23T13:03:34.489Z,49.50
2018-07-23T13:06:02.716Z,48.90
2018-07-23T13:08:30.970Z,46.40
2018-07-23T13:10:59.185Z,48.80
2018-07-23T13:13:27.404Z,50.00
2018-07-23T13:15:55.659Z,46.70
2018-07-23T13:18:24.633Z,48.10
2018-07-23T13:20:53.668Z,46.00
2018-07-23T13:23:21.925Z,46.50
2018-07-23T13:25:51.017Z,44.80
2018-07-23T13:28:19.213Z,45.10
2018-07-23T13:30:47.448Z,48.90
2018-07-23T13:33:15.709Z,46.10
2018-07-23T13:35:43.915Z,48.80
2018-07-23T13:38:13.044Z,49.60
2018-07-23T13:40:41.166Z,49.60
2018-07-23T13:43:09.419Z,49.50
2018-07-23T13:45:37.654Z,43.50
2018-07-23T13:48:05.977Z,44.70
2018-07-23T13:50:34.208Z,47.20
2018-07-23T13:53:03.175Z,46.40
2018-07-23T13:55:31.394Z,46.60
2018-07-23T13:57:59.629Z,51.00
2018-07-23T14:00:27.858Z,50.10
2018-07-23T14:02:56.092Z,45.90
2018-07-23T14:05:25.139Z,50.00
2018-07-23T14:07:53.382Z,49.80
2018-07-23T14:10:21.603Z,50.90
2018-07-23T14:12:49.830Z,50.70
2018-07-23T14:15:18.076Z,47.50
2018-07-23T14:17:46.350Z,49.10
2018-07-23T14:20:14.558Z,47.70
2018-07-23T14:22:43.571Z,50.30
2018-07-23T14:25:11.785Z,50.30
2018-07-23T14:27:40.004Z,49.10
2018-07-23T14:30:08.316Z,49.20
2018-07-23T14:32:36.490Z,50.80
2018-07-23T14:35:04.746Z,49.20
2018-07-23T14:37:32.960Z,47.30
2018-07-23T14:40:01.235Z,46.40
2018-07-23T14:42:29.477Z,48.90
2018-07-23T14:44:57.740Z,48.50
2018-07-23T14:47:26.752Z,47.90
2018-07-23T14:49:54.975Z,47.90
2018-07-23T14:52:23.176Z,49.40
2018-07-23T14:54:52.180Z,50.90
2018-07-23T14:57:20.399Z,50.80
2018-07-23T14:59:48.654Z,50.10
2018-07-23T15:02:16.860Z,47.40
2018-07-23T15:04:45.102Z,47.60
2018-07-23T15:07:13.339Z,46.50
2018-07-23T15:09:41.629Z,49.00
2018-07-23T15:12:09.846Z,48.40
2018-07-23T15:14:38.113Z,47.80
2018-07-23T15:17:06.373Z,48.00
2018-07-23T15:19:35.354Z,47.00
2018-07-23T15:22:04.351Z,47.10
2018-07-23T15:24:33.370Z,48.90
2018-07-23T15:27:01.614Z,48.80
2018-07-23T15:29:29.835Z,48.80
2018-07-23T15:31:58.038Z,47.70
2018-07-23T15:34:26.296Z,49.00
2018-07-23T15:36:54.515Z,48.50
2018-07-23T15:39:23.537Z,48.00
2018-07-23T15:41:51.762Z,48.00
2018-07-23T15:44:20.137Z,49.20
2018-07-23T15:46:48.262Z,48.60
2018-07-23T15:49:16.477Z,47.90
2018-07-23T15:51:44.906Z,48.00
2018-07-23T15:54:13.928Z,45.30
2018-07-23T15:56:42.174Z,45.40
2018-07-23T15:59:10.417Z,42.40
2018-07-23T16:01:39.378Z,47.80
2018-07-23T16:04:07.612Z,47.10
2018-07-23T16:06:36.663Z,47.40
2018-07-23T16:09:04.875Z,47.20
2018-07-23T16:11:33.149Z,46.90
2018-07-23T16:14:01.389Z,44.90
2018-07-23T16:16:29.601Z,45.50
2018-07-23T16:18:57.932Z,46.50
2018-07-23T16:21:26.096Z,45.90
2018-07-23T16:23:54.329Z,44.90
2018-07-23T16:26:23.365Z,46.60
2018-07-23T16:28:51.573Z,46.00
2018-07-23T16:31:19.849Z,46.20
2018-07-23T16:33:48.094Z,45.90
2018-07-23T16:36:16.359Z,45.20
2018-07-23T16:38:45.342Z,46.00
2018-07-23T16:41:13.562Z,46.10
2018-07-23T16:43:41.759Z,46.40
2018-07-23T16:46:10.022Z,47.00
2018-07-23T16:48:38.270Z,46.00
2018-07-23T16:51:07.280Z,46.70
2018-07-23T16:53:35.500Z,46.80
2018-07-23T16:56:03.723Z,45.10
2018-07-23T16:58:31.936Z,47.50
2018-07-23T17:01:00.201Z,47.40
2018-07-23T17:03:28.440Z,47.30
2018-07-23T17:05:56.659Z,47.10
2018-07-23T17:08:24.859Z,47.50
2018-07-23T17:10:53.127Z,47.00
2018-07-23T17:13:21.304Z,46.80
2018-07-23T17:15:49.570Z,47.00
2018-07-23T17:18:17.734Z,46.30
2018-07-23T17:20:45.958Z,46.60
2018-07-23T17:23:14.186Z,46.70
2018-07-23T17:25:42.409Z,43.40
2018-07-23T17:28:11.427Z,46.40
2018-07-23T17:30:39.693Z,46.40
2018-07-23T17:33:07.903Z,46.40
2018-07-23T17:35:36.202Z,46.40
2018-07-23T17:38:04.436Z,46.60
2018-07-23T17:40:32.668Z,46.70
2018-07-23T17:43:00.878Z,46.50
2018-07-23T17:45:29.105Z,46.10
2018-07-23T17:47:57.349Z,46.60
2018-07-23T17:50:25.576Z,46.60
2018-07-23T17:52:54.601Z,46.50
2018-07-23T17:55:22.869Z,46.30
2018-07-23T17:57:51.875Z,46.50
2018-07-23T18:00:20.098Z,46.50
2018-07-23T18:02:48.309Z,47.10
2018-07-23T18:05:16.590Z,46.70
2018-07-23T18:07:45.615Z,46.90
2018-07-23T18:10:14.635Z,46.90
2018-07-23T18:12:42.877Z,46.90
2018-07-23T18:15:11.107Z,46.20
2018-07-23T18:17:39.328Z,46.90
2018-07-23T18:20:07.557Z,46.90
2018-07-23T18:22:35.796Z,46.80
2018-07-23T18:25:04.050Z,47.00
2018-07-23T18:27:33.017Z,46.90
2018-07-23T18:30:02.057Z,46.90
2018-07-23T18:32:30.303Z,46.80
2018-07-23T18:34:58.579Z,46.80
2018-07-23T18:37:27.559Z,46.80
2018-07-23T18:39:56.573Z,46.70
2018-07-23T18:42:24.827Z,46.70
2018-07-23T18:44:53.088Z,46.90
2018-07-23T18:47:21.306Z,46.90
2018-07-23T18:49:49.621Z,47.10
2018-07-23T18:52:17.884Z,47.10
2018-07-23T18:54:46.147Z,47.20
2018-07-23T18:57:14.378Z,47.20
2018-07-23T18:59:42.656Z,47.10
2018-07-23T19:02:10.877Z,47.10
2018-07-23T19:04:39.110Z,47.20
2018-07-23T19:07:07.410Z,47.70
2018-07-23T19:09:36.423Z,47.70
2018-07-23T19:12:04.685Z,47.70
2018-07-23T19:14:32.901Z,47.90
2018-07-23T19:17:01.389Z,48.80
2018-07-23T19:19:29.637Z,50.50
2018-07-23T19:21:57.910Z,51.30
2018-07-23T19:24:26.217Z,51.00
2018-07-23T19:26:54.496Z,49.20
2018-07-23T19:29:22.708Z,49.40
2018-07-23T19:31:50.979Z,49.40
2018-07-23T19:34:19.223Z,49.70
2018-07-23T19:36:47.474Z,49.20
2018-07-23T19:39:15.734Z,49.20
2018-07-23T19:41:44.709Z,52.20
2018-07-23T19:44:12.926Z,52.10
2018-07-23T19:46:41.145Z,51.50
2018-07-23T19:49:09.416Z,50.30
2018-07-23T19:51:37.690Z,50.70
2018-07-23T19:54:05.898Z,50.10
2018-07-23T19:56:34.962Z,52.70
2018-07-23T19:59:03.220Z,53.40
2018-07-23T20:01:31.461Z,51.10
2018-07-23T20:04:00.439Z,50.30
2018-07-23T20:06:29.480Z,50.90
2018-07-23T20:08:57.690Z,50.90
2018-07-23T20:11:25.986Z,51.30
2018-07-23T20:13:54.229Z,53.00
2018-07-23T20:16:22.455Z,55.50
2018-07-23T20:18:50.663Z,57.70
2018-07-23T20:21:18.936Z,56.00
2018-07-23T20:23:47.175Z,56.80
2018-07-23T20:26:16.187Z,56.30
2018-07-23T20:28:44.410Z,56.10
2018-07-23T20:31:12.693Z,55.90
2018-07-23T20:33:40.917Z,52.90
2018-07-23T20:36:09.189Z,52.90
2018-07-23T20:38:37.452Z,51.60
2018-07-23T20:41:05.714Z,51.40
2018-07-23T20:43:33.973Z,51.10
2018-07-23T20:46:02.236Z,50.80
2018-07-23T20:48:30.475Z,50.50
2018-07-23T20:50:58.725Z,51.40
2018-07-23T20:53:26.928Z,50.90
2018-07-23T20:55:55.155Z,51.00
2018-07-23T20:58:23.403Z,50.60
2018-07-23T21:00:51.648Z,51.00
2018-07-23T21:03:20.628Z,50.80
2018-07-23T21:05:49.622Z,51.60
2018-07-23T21:08:17.866Z,51.70
2018-07-23T21:10:46.127Z,51.60
2018-07-23T21:13:14.369Z,51.00
2018-07-23T21:15:43.388Z,51.30
2018-07-23T21:18:11.584Z,51.20
2018-07-23T21:20:39.806Z,51.30
2018-07-23T21:23:08.808Z,53.90
2018-07-23T21:25:37.777Z,53.80
2018-07-23T21:28:06.046Z,53.70
2018-07-23T21:30:34.249Z,52.20
2018-07-23T21:33:03.286Z,51.60
2018-07-23T21:35:31.522Z,51.50
2018-07-23T21:38:00.551Z,51.70
2018-07-23T21:40:28.789Z,51.70
2018-07-23T21:42:57.782Z,51.50
2018-07-23T21:45:26.811Z,51.20
2018-07-23T21:47:55.083Z,51.20
2018-07-23T21:50:23.326Z,51.20
2018-07-23T21:52:52.303Z,51.10
2018-07-23T21:55:20.546Z,51.10
2018-07-23T21:57:48.840Z,51.20
2018-07-23T22:00:17.034Z,52.50
2018-07-23T22:02:45.310Z,51.70
2018-07-23T22:05:13.559Z,51.60
2018-07-23T22:07:41.776Z,51.80
2018-07-23T22:10:10.745Z,51.70
2018-07-23T22:12:38.996Z,51.60
2018-07-23T22:15:07.207Z,51.50
2018-07-23T22:17:35.428Z,51.70
2018-07-23T22:20:03.686Z,52.80
2018-07-23T22:22:32.652Z,57.00
2018-07-23T22:25:00.861Z,55.90
2018-07-23T22:27:29.121Z,52.30
2018-07-23T22:29:57.326Z,52.20
2018-07-23T22:32:25.575Z,52.80
2018-07-23T22:34:54.548Z,52.10
2018-07-23T22:37:22.811Z,52.10
2018-07-23T22:39:51.013Z,52.00
2018-07-23T22:42:19.232Z,51.90
2018-07-23T22:44:47.444Z,51.70
2018-07-23T22:47:15.651Z,51.70
2018-07-23T22:49:44.964Z,52.00
2018-07-23T22:52:13.270Z,52.00
2018-07-23T22:54:41.511Z,52.10
2018-07-23T22:57:10.532Z,52.60
2018-07-23T22:59:38.731Z,52.70
2018-07-23T23:02:06.988Z,57.90
2018-07-23T23:04:35.188Z,57.20
2018-07-23T23:07:04.207Z,53.30
2018-07-23T23:09:32.411Z,53.20
2018-07-23T23:12:00.635Z,53.00
2018-07-23T23:14:28.879Z,52.80
2018-07-23T23:16:57.087Z,52.90
2018-07-23T23:19:25.362Z,52.80
2018-07-23T23:21:53.608Z,52.60
2018-07-23T23:24:21.849Z,52.70
2018-07-23T23:26:50.874Z,52.60
2018-07-23T23:29:19.119Z,52.60
2018-07-23T23:31:47.371Z,52.90
2018-07-23T23:34:15.617Z,52.60
2018-07-23T23:36:43.862Z,52.90
2018-07-23T23:39:12.870Z,53.20
2018-07-23T23:41:41.887Z,53.40
2018-07-23T23:44:10.125Z,53.40
2018-07-23T23:46:39.135Z,53.20
2018-07-23T23:49:07.326Z,53.20
2018-07-23T23:51:35.552Z,53.20
2018-07-23T23:54:03.808Z,53.60
2018-07-23T23:56:32.019Z,53.00
2018-07-23T23:59:00.988Z,53.20
